sensor_id;sensor_type;location;lat;lon;timestamp;pressure;altitude;pressure_sealevel;temperature;humidity
8890;BME280;4481;43.406;24.454;2023-06-22T00:00:10;76244.44;;;-144.09;100.00
8890;BME280;4481;43.406;24.454;2023-06-22T00:02:37;76256.97;;;-144.09;100.00
8890;BME280;4481;43.406;24.454;2023-06-22T00:05:04;76238.16;;;-144.09;100.00
8890;BME280;4481;43.406;24.454;2023-06-22T00:07:30;76233.97;;;-144.09;100.00
8890;BME280;4481;43.406;24.454;2023-06-22T00:09:56;76231.88;;;-144.09;100.00
8890;BME280;4481;43.406;24.454;2023-06-22T00:12:22;76227.72;;;-144.09;100.00
8890;BME280;4481;43.406;24.454;2023-06-22T00:14:48;76236.06;;;-144.09;100.00
8890;BME280;4481;43.406;24.454;2023-06-22T00:17:15;76252.78;;;-144.09;100.00
8890;BME280;4481;43.406;24.454;2023-06-22T00:19:41;76233.97;;;-144.09;100.00
8890;BME280;4481;43.406;24.454;2023-06-22T00:22:08;76223.53;;;-144.09;100.00
8890;BME280;4481;43.406;24.454;2023-06-22T00:24:34;76227.72;;;-144.09;100.00
8890;BME280;4481;43.406;24.454;2023-06-22T00:27:00;76229.81;;;-144.09;100.00
8890;BME280;4481;43.406;24.454;2023-06-22T00:29:26;76246.50;;;-144.09;100.00
8890;BME280;4481;43.406;24.454;2023-06-22T00:31:53;76244.44;;;-144.09;100.00
8890;BME280;4481;43.406;24.454;2023-06-22T00:34:19;76252.78;;;-144.09;100.00
8890;BME280;4481;43.406;24.454;2023-06-22T00:36:46;76256.97;;;-144.09;100.00
8890;BME280;4481;43.406;24.454;2023-06-22T00:39:12;76261.13;;;-144.09;100.00
8890;BME280;4481;43.406;24.454;2023-06-22T00:41:38;76254.88;;;-144.09;100.00
8890;BME280;4481;43.406;24.454;2023-06-22T00:44:04;76238.16;;;-144.09;100.00
8890;BME280;4481;43.406;24.454;2023-06-22T00:46:32;76252.78;;;-144.09;100.00
8890;BME280;4481;43.406;24.454;2023-06-22T00:48:59;76250.69;;;-144.09;100.00
8890;BME280;4481;43.406;24.454;2023-06-22T00:51:26;76267.41;;;-144.09;100.00
8890;BME280;4481;43.406;24.454;2023-06-22T00:53:52;76269.50;;;-144.09;100.00
8890;BME280;4481;43.406;24.454;2023-06-22T00:56:18;76273.69;;;-144.09;100.00
8890;BME280;4481;43.406;24.454;2023-06-22T00:58:45;76282.03;;;-144.09;100.00
8890;BME280;4481;43.406;24.454;2023-06-22T01:01:12;76290.41;;;-144.09;100.00
8890;BME280;4481;43.406;24.454;2023-06-22T01:03:39;76298.75;;;-144.09;100.00
8890;BME280;4481;43.406;24.454;2023-06-22T01:06:10;76279.94;;;-144.09;100.00
8890;BME280;4481;43.406;24.454;2023-06-22T01:08:44;76292.47;;;-144.09;100.00
8890;BME280;4481;43.406;24.454;2023-06-22T01:11:17;76305.03;;;-144.09;100.00
8890;BME280;4481;43.406;24.454;2023-06-22T01:13:51;76321.72;;;-144.09;100.00
8890;BME280;4481;43.406;24.454;2023-06-22T01:16:23;76344.72;;;-144.09;100.00
8890;BME280;4481;43.406;24.454;2023-06-22T01:18:52;76330.09;;;-144.09;100.00
8890;BME280;4481;43.406;24.454;2023-06-22T01:21:22;76323.81;;;-144.09;100.00
8890;BME280;4481;43.406;24.454;2023-06-22T01:24:01;76330.09;;;-144.09;100.00
8890;BME280;4481;43.406;24.454;2023-06-22T01:26:38;76313.38;;;-144.09;100.00
8890;BME280;4481;43.406;24.454;2023-06-22T01:29:06;76309.19;;;-144.09;100.00
8890;BME280;4481;43.406;24.454;2023-06-22T01:31:34;76315.47;;;-144.09;100.00
8890;BME280;4481;43.406;24.454;2023-06-22T01:34:03;76305.03;;;-144.09;100.00
8890;BME280;4481;43.406;24.454;2023-06-22T01:36:32;76302.94;;;-144.09;100.00
8890;BME280;4481;43.406;24.454;2023-06-22T01:38:59;76300.84;;;-144.09;100.00
8890;BME280;4481;43.406;24.454;2023-06-22T01:41:26;76315.47;;;-144.09;100.00
8890;BME280;4481;43.406;24.454;2023-06-22T01:43:55;76319.66;;;-144.09;100.00
8890;BME280;4481;43.406;24.454;2023-06-22T01:46:23;76325.91;;;-144.09;100.00
8890;BME280;4481;43.406;24.454;2023-06-22T01:48:50;76325.91;;;-144.09;100.00
8890;BME280;4481;43.406;24.454;2023-06-22T01:51:16;76334.28;;;-144.09;100.00
8890;BME280;4481;43.406;24.454;2023-06-22T01:53:42;76338.44;;;-144.09;100.00
8890;BME280;4481;43.406;24.454;2023-06-22T01:56:09;76371.88;;;-144.09;100.00
8890;BME280;4481;43.406;24.454;2023-06-22T01:58:37;76380.25;;;-144.09;100.00
8890;BME280;4481;43.406;24.454;2023-06-22T02:01:10;76359.34;;;-144.09;100.00
8890;BME280;4481;43.406;24.454;2023-06-22T02:03:41;76367.69;;;-144.09;100.00
8890;BME280;4481;43.406;24.454;2023-06-22T02:06:21;76365.63;;;-144.09;100.00
8890;BME280;4481;43.406;24.454;2023-06-22T02:08:53;76371.88;;;-144.09;100.00
8890;BME280;4481;43.406;24.454;2023-06-22T02:11:21;76363.53;;;-144.09;100.00
8890;BME280;4481;43.406;24.454;2023-06-22T02:13:48;76371.88;;;-144.09;100.00
8890;BME280;4481;43.406;24.454;2023-06-22T02:16:16;76376.06;;;-144.09;100.00
8890;BME280;4481;43.406;24.454;2023-06-22T02:18:46;76363.53;;;-144.09;100.00
8890;BME280;4481;43.406;24.454;2023-06-22T02:21:12;76367.69;;;-144.09;100.00
8890;BME280;4481;43.406;24.454;2023-06-22T02:23:39;76353.06;;;-144.09;100.00
8890;BME280;4481;43.406;24.454;2023-06-22T02:26:05;76357.25;;;-144.09;100.00
8890;BME280;4481;43.406;24.454;2023-06-22T02:28:31;76361.44;;;-144.09;100.00
8890;BME280;4481;43.406;24.454;2023-06-22T02:30:57;76348.91;;;-144.09;100.00
8890;BME280;4481;43.406;24.454;2023-06-22T02:33:23;76359.34;;;-144.09;100.00
8890;BME280;4481;43.406;24.454;2023-06-22T02:35:50;76361.44;;;-144.09;100.00
8890;BME280;4481;43.406;24.454;2023-06-22T02:38:16;76359.34;;;-144.09;100.00
8890;BME280;4481;43.406;24.454;2023-06-22T02:40:43;76369.78;;;-144.09;100.00
8890;BME280;4481;43.406;24.454;2023-06-22T02:43:09;76361.44;;;-144.09;100.00
8890;BME280;4481;43.406;24.454;2023-06-22T02:45:35;76357.25;;;-144.09;100.00
8890;BME280;4481;43.406;24.454;2023-06-22T02:48:02;76355.16;;;-144.09;100.00
8890;BME280;4481;43.406;24.454;2023-06-22T02:50:28;76369.78;;;-144.09;100.00
8890;BME280;4481;43.406;24.454;2023-06-22T02:52:55;76363.53;;;-144.09;100.00
8890;BME280;4481;43.406;24.454;2023-06-22T02:55:21;76361.44;;;-144.09;100.00
8890;BME280;4481;43.406;24.454;2023-06-22T02:57:49;76373.97;;;-144.09;100.00
8890;BME280;4481;43.406;24.454;2023-06-22T03:00:18;76376.06;;;-144.09;100.00
8890;BME280;4481;43.406;24.454;2023-06-22T03:02:45;76365.63;;;-144.09;100.00
8890;BME280;4481;43.406;24.454;2023-06-22T03:05:12;76373.97;;;-144.09;100.00
8890;BME280;4481;43.406;24.454;2023-06-22T03:07:40;76376.06;;;-144.09;100.00
8890;BME280;4481;43.406;24.454;2023-06-22T03:10:08;76386.50;;;-144.09;100.00
8890;BME280;4481;43.406;24.454;2023-06-22T03:12:35;76371.88;;;-144.09;100.00
8890;BME280;4481;43.406;24.454;2023-06-22T03:15:01;76359.34;;;-144.09;100.00
8890;BME280;4481;43.406;24.454;2023-06-22T03:17:27;76369.78;;;-144.09;100.00
8890;BME280;4481;43.406;24.454;2023-06-22T03:19:54;76384.41;;;-144.09;100.00
8890;BME280;4481;43.406;24.454;2023-06-22T03:22:20;76376.06;;;-144.09;100.00
8890;BME280;4481;43.406;24.454;2023-06-22T03:24:46;76361.44;;;-144.09;100.00
8890;BME280;4481;43.406;24.454;2023-06-22T03:27:13;76357.25;;;-144.09;100.00
8890;BME280;4481;43.406;24.454;2023-06-22T03:29:39;76348.91;;;-144.09;100.00
8890;BME280;4481;43.406;24.454;2023-06-22T03:32:06;76338.44;;;-144.09;100.00
8890;BME280;4481;43.406;24.454;2023-06-22T03:34:32;76321.72;;;-144.09;100.00
8890;BME280;4481;43.406;24.454;2023-06-22T03:36:59;76319.66;;;-144.09;100.00
8890;BME280;4481;43.406;24.454;2023-06-22T03:39:25;76317.56;;;-144.09;100.00
8890;BME280;4481;43.406;24.454;2023-06-22T03:41:52;76302.94;;;-144.09;100.00
8890;BME280;4481;43.406;24.454;2023-06-22T03:44:18;76300.84;;;-144.09;100.00
8890;BME280;4481;43.406;24.454;2023-06-22T03:46:44;76305.03;;;-144.09;100.00
8890;BME280;4481;43.406;24.454;2023-06-22T03:49:11;76292.47;;;-144.09;100.00
8890;BME280;4481;43.406;24.454;2023-06-22T03:51:37;76273.69;;;-144.09;100.00
8890;BME280;4481;43.406;24.454;2023-06-22T03:54:03;76254.88;;;-144.09;100.00
8890;BME280;4481;43.406;24.454;2023-06-22T03:56:29;76229.81;;;-144.09;100.00
8890;BME280;4481;43.406;24.454;2023-06-22T03:58:55;76227.72;;;-144.09;100.00
8890;BME280;4481;43.406;24.454;2023-06-22T04:01:22;76208.91;;;-144.09;100.00
8890;BME280;4481;43.406;24.454;2023-06-22T04:03:48;76194.28;;;-144.09;100.00
8890;BME280;4481;43.406;24.454;2023-06-22T04:06:15;76165.03;;;-144.09;100.00
8890;BME280;4481;43.406;24.454;2023-06-22T04:08:41;76142.03;;;-144.09;100.00
8890;BME280;4481;43.406;24.454;2023-06-22T04:11:07;76129.50;;;-144.09;100.00
8890;BME280;4481;43.406;24.454;2023-06-22T04:13:34;76121.16;;;-144.09;100.00
8890;BME280;4481;43.406;24.454;2023-06-22T04:16:00;76102.34;;;-144.09;100.00
8890;BME280;4481;43.406;24.454;2023-06-22T04:18:27;76073.09;;;-144.09;100.00
8890;BME280;4481;43.406;24.454;2023-06-22T04:20:53;76050.13;;;-144.09;100.00
8890;BME280;4481;43.406;24.454;2023-06-22T04:23:20;76018.78;;;-144.09;100.00
8890;BME280;4481;43.406;24.454;2023-06-22T04:25:46;75945.66;;;-144.09;100.00
8890;BME280;4481;43.406;24.454;2023-06-22T04:28:12;75872.53;;;-144.09;100.00
8890;BME280;4481;43.406;24.454;2023-06-22T04:30:38;75795.25;;;-144.09;98.16
8890;BME280;4481;43.406;24.454;2023-06-22T04:33:12;75720.03;;;-144.09;95.42
8890;BME280;4481;43.406;24.454;2023-06-22T04:35:39;75665.72;;;-144.09;93.33
8890;BME280;4481;43.406;24.454;2023-06-22T04:38:07;75623.94;;;-144.09;93.06
8890;BME280;4481;43.406;24.454;2023-06-22T04:40:33;75619.75;;;-144.09;92.59
8890;BME280;4481;43.406;24.454;2023-06-22T04:42:59;75619.75;;;-144.09;92.11
8890;BME280;4481;43.406;24.454;2023-06-22T04:45:27;75605.13;;;-144.09;92.39
8890;BME280;4481;43.406;24.454;2023-06-22T04:47:54;75598.88;;;-144.09;91.27
8890;BME280;4481;43.406;24.454;2023-06-22T04:50:20;75582.16;;;-144.09;91.70
8890;BME280;4481;43.406;24.454;2023-06-22T04:52:50;75577.97;;;-144.09;91.48
8890;BME280;4481;43.406;24.454;2023-06-22T04:55:18;75596.78;;;-144.09;91.12
8890;BME280;4481;43.406;24.454;2023-06-22T04:57:46;75600.97;;;-144.09;90.88
8890;BME280;4481;43.406;24.454;2023-06-22T05:00:16;75607.22;;;-144.09;91.11
8890;BME280;4481;43.406;24.454;2023-06-22T05:02:43;75559.19;;;-144.09;90.59
8890;BME280;4481;43.406;24.454;2023-06-22T05:05:10;75517.41;;;-144.09;90.34
8890;BME280;4481;43.406;24.454;2023-06-22T05:07:39;75529.94;;;-144.09;89.23
8890;BME280;4481;43.406;24.454;2023-06-22T05:10:09;75504.88;;;-144.09;89.64
8890;BME280;4481;43.406;24.454;2023-06-22T05:12:36;75492.34;;;-144.09;89.79
8890;BME280;4481;43.406;24.454;2023-06-22T05:15:02;75509.03;;;-144.09;89.40
8890;BME280;4481;43.406;24.454;2023-06-22T05:17:28;75490.25;;;-144.09;89.78
8890;BME280;4481;43.406;24.454;2023-06-22T05:19:55;75467.28;;;-144.09;89.51
8890;BME280;4481;43.406;24.454;2023-06-22T05:22:21;75452.66;;;-144.09;88.79
8890;BME280;4481;43.406;24.454;2023-06-22T05:24:48;75444.28;;;-144.09;88.49
8890;BME280;4481;43.406;24.454;2023-06-22T05:27:17;75469.34;;;-144.09;88.41
8890;BME280;4481;43.406;24.454;2023-06-22T05:29:43;75458.91;;;-144.09;88.26
8890;BME280;4481;43.406;24.454;2023-06-22T05:32:09;75477.72;;;-144.09;88.49
8890;BME280;4481;43.406;24.454;2023-06-22T05:34:36;75483.97;;;-144.09;88.96
8890;BME280;4481;43.406;24.454;2023-06-22T05:37:06;75498.59;;;-144.09;90.12
8890;BME280;4481;43.406;24.454;2023-06-22T05:39:32;75494.44;;;-144.09;89.55
8890;BME280;4481;43.406;24.454;2023-06-22T05:41:58;75477.72;;;-144.09;89.43
8890;BME280;4481;43.406;24.454;2023-06-22T05:44:25;75456.81;;;-144.09;89.66
8890;BME280;4481;43.406;24.454;2023-06-22T05:46:51;75450.56;;;-144.09;90.38
8890;BME280;4481;43.406;24.454;2023-06-22T05:49:17;75454.75;;;-144.09;90.14
8890;BME280;4481;43.406;24.454;2023-06-22T05:51:44;75465.19;;;-144.09;90.32
8890;BME280;4481;43.406;24.454;2023-06-22T05:54:10;75461.00;;;-144.09;90.17
8890;BME280;4481;43.406;24.454;2023-06-22T05:56:38;75446.38;;;-144.09;89.81
8890;BME280;4481;43.406;24.454;2023-06-22T05:59:05;75433.84;;;-144.09;90.33
8890;BME280;4481;43.406;24.454;2023-06-22T06:01:32;75417.13;;;-144.09;90.17
8890;BME280;4481;43.406;24.454;2023-06-22T06:04:01;75383.72;;;-144.09;89.89
8890;BME280;4481;43.406;24.454;2023-06-22T06:06:28;75360.75;;;-144.09;89.38
8890;BME280;4481;43.406;24.454;2023-06-22T06:08:54;75304.34;;;-144.09;87.89
8890;BME280;4481;43.406;24.454;2023-06-22T06:11:20;75243.75;;;-144.09;86.10
8890;BME280;4481;43.406;24.454;2023-06-22T06:13:46;75220.78;;;-144.09;86.02
8890;BME280;4481;43.406;24.454;2023-06-22T06:16:12;75204.06;;;-144.09;84.65
8890;BME280;4481;43.406;24.454;2023-06-22T06:18:39;75174.84;;;-144.09;84.37
8890;BME280;4481;43.406;24.454;2023-06-22T06:21:06;75141.41;;;-144.09;83.21
8890;BME280;4481;43.406;24.454;2023-06-22T06:23:32;75114.25;;;-144.09;82.00
8890;BME280;4481;43.406;24.454;2023-06-22T06:25:58;75108.00;;;-144.09;81.37
8890;BME280;4481;43.406;24.454;2023-06-22T06:28:24;75068.31;;;-144.09;80.75
8890;BME280;4481;43.406;24.454;2023-06-22T06:30:51;75041.16;;;-144.09;75.05
8890;BME280;4481;43.406;24.454;2023-06-22T06:33:17;75053.69;;;-144.09;75.39
8890;BME280;4481;43.406;24.454;2023-06-22T06:35:47;75080.84;;;-144.09;73.85
8890;BME280;4481;43.406;24.454;2023-06-22T06:38:13;75066.22;;;-144.09;67.55
8890;BME280;4481;43.406;24.454;2023-06-22T06:40:39;75034.91;;;-144.09;66.12
8890;BME280;4481;43.406;24.454;2023-06-22T06:43:05;75014.00;;;-144.09;65.98
8890;BME280;4481;43.406;24.454;2023-06-22T06:45:31;75036.97;;;-144.09;67.32
8890;BME280;4481;43.406;24.454;2023-06-22T06:48:00;74995.22;;;-144.09;65.55
8890;BME280;4481;43.406;24.454;2023-06-22T06:50:26;75022.38;;;-144.09;65.99
8890;BME280;4481;43.406;24.454;2023-06-22T06:52:53;75043.25;;;-144.09;66.66
8890;BME280;4481;43.406;24.454;2023-06-22T06:55:19;75009.84;;;-144.09;65.87
8890;BME280;4481;43.406;24.454;2023-06-22T06:57:45;75032.81;;;-144.09;66.41
8890;BME280;4481;43.406;24.454;2023-06-22T07:00:14;75034.91;;;-144.09;66.36
8890;BME280;4481;43.406;24.454;2023-06-22T07:02:41;75036.97;;;-144.09;65.79
8890;BME280;4481;43.406;24.454;2023-06-22T07:05:08;74970.16;;;-144.09;65.40
8890;BME280;4481;43.406;24.454;2023-06-22T07:07:35;74911.66;;;-144.09;64.70
8890;BME280;4481;43.406;24.454;2023-06-22T07:10:02;74905.41;;;-144.09;64.09
8890;BME280;4481;43.406;24.454;2023-06-22T07:12:29;74888.69;;;-144.09;63.56
8890;BME280;4481;43.406;24.454;2023-06-22T07:15:01;74905.41;;;-144.09;63.66
8890;BME280;4481;43.406;24.454;2023-06-22T07:17:28;74886.59;;;-144.09;63.21
8890;BME280;4481;43.406;24.454;2023-06-22T07:19:54;74913.75;;;-144.09;64.33
8890;BME280;4481;43.406;24.454;2023-06-22T07:22:21;74892.88;;;-144.09;63.45
8890;BME280;4481;43.406;24.454;2023-06-22T07:24:47;74909.56;;;-144.09;62.70
8890;BME280;4481;43.406;24.454;2023-06-22T07:27:15;74876.16;;;-144.09;62.90
8890;BME280;4481;43.406;24.454;2023-06-22T07:29:44;74851.09;;;-144.09;62.95
8890;BME280;4481;43.406;24.454;2023-06-22T07:32:10;74876.16;;;-144.09;62.13
8890;BME280;4481;43.406;24.454;2023-06-22T07:34:36;74844.84;;;-144.09;62.05
8890;BME280;4481;43.406;24.454;2023-06-22T07:37:04;74815.59;;;-144.09;60.63
8890;BME280;4481;43.406;24.454;2023-06-22T07:39:30;74853.19;;;-144.09;60.54
8890;BME280;4481;43.406;24.454;2023-06-22T07:41:57;74871.97;;;-144.09;61.82
8890;BME280;4481;43.406;24.454;2023-06-22T07:44:25;74830.22;;;-144.09;62.51
8890;BME280;4481;43.406;24.454;2023-06-22T07:46:53;74838.56;;;-144.09;62.71
8890;BME280;4481;43.406;24.454;2023-06-22T07:49:19;74811.41;;;-144.09;62.97
8890;BME280;4481;43.406;24.454;2023-06-22T07:51:46;74796.81;;;-144.09;61.63
8890;BME280;4481;43.406;24.454;2023-06-22T07:54:12;74773.81;;;-144.09;60.30
8890;BME280;4481;43.406;24.454;2023-06-22T07:56:41;74773.81;;;-144.09;60.26
8890;BME280;4481;43.406;24.454;2023-06-22T07:59:07;74750.84;;;-144.09;59.54
8890;BME280;4481;43.406;24.454;2023-06-22T08:01:34;74719.53;;;-144.09;59.58
8890;BME280;4481;43.406;24.454;2023-06-22T08:04:00;74721.63;;;-144.09;58.74
8890;BME280;4481;43.406;24.454;2023-06-22T08:06:26;74761.28;;;-144.09;59.91
8890;BME280;4481;43.406;24.454;2023-06-22T08:08:52;74757.13;;;-144.09;59.52
8890;BME280;4481;43.406;24.454;2023-06-22T08:11:20;74742.50;;;-144.09;60.82
8890;BME280;4481;43.406;24.454;2023-06-22T08:13:47;74761.28;;;-144.09;59.83
8890;BME280;4481;43.406;24.454;2023-06-22T08:16:14;74767.56;;;-144.09;60.11
8890;BME280;4481;43.406;24.454;2023-06-22T08:18:41;74757.13;;;-144.09;60.89
8890;BME280;4481;43.406;24.454;2023-06-22T08:21:07;74765.47;;;-144.09;61.22
8890;BME280;4481;43.406;24.454;2023-06-22T08:23:33;74834.38;;;-144.09;61.81
8890;BME280;4481;43.406;24.454;2023-06-22T08:25:59;74771.75;;;-144.09;60.64
8890;BME280;4481;43.406;24.454;2023-06-22T08:28:25;74729.97;;;-144.09;60.29
8890;BME280;4481;43.406;24.454;2023-06-22T08:30:51;74719.53;;;-144.09;60.25
8890;BME280;4481;43.406;24.454;2023-06-22T08:33:17;74729.97;;;-144.09;60.27
8890;BME280;4481;43.406;24.454;2023-06-22T08:35:44;74742.50;;;-144.09;60.12
8890;BME280;4481;43.406;24.454;2023-06-22T08:38:11;74738.31;;;-144.09;59.06
8890;BME280;4481;43.406;24.454;2023-06-22T08:40:39;74771.75;;;-144.09;59.50
8890;BME280;4481;43.406;24.454;2023-06-22T08:43:05;74727.88;;;-144.09;60.63
8890;BME280;4481;43.406;24.454;2023-06-22T08:45:31;74709.09;;;-144.09;61.10
8890;BME280;4481;43.406;24.454;2023-06-22T08:47:58;74700.72;;;-144.09;60.60
8890;BME280;4481;43.406;24.454;2023-06-22T08:50:24;74688.19;;;-144.09;60.89
8890;BME280;4481;43.406;24.454;2023-06-22T08:52:51;74711.16;;;-144.09;59.85
8890;BME280;4481;43.406;24.454;2023-06-22T08:55:17;74688.19;;;-144.09;59.45
8890;BME280;4481;43.406;24.454;2023-06-22T08:57:43;74669.41;;;-144.09;59.28
8890;BME280;4481;43.406;24.454;2023-06-22T09:00:11;74681.94;;;-144.09;58.55
8890;BME280;4481;43.406;24.454;2023-06-22T09:02:42;74665.22;;;-144.09;57.67
8890;BME280;4481;43.406;24.454;2023-06-22T09:05:09;74640.16;;;-144.09;55.27
8890;BME280;4481;43.406;24.454;2023-06-22T09:07:35;74623.47;;;-144.09;56.68
8890;BME280;4481;43.406;24.454;2023-06-22T09:10:03;74640.16;;;-144.09;57.71
8890;BME280;4481;43.406;24.454;2023-06-22T09:12:30;74715.34;;;-144.09;58.76
8890;BME280;4481;43.406;24.454;2023-06-22T09:14:58;74711.16;;;-144.09;58.42
8890;BME280;4481;43.406;24.454;2023-06-22T09:17:26;74698.63;;;-144.09;59.17
8890;BME280;4481;43.406;24.454;2023-06-22T09:19:52;74700.72;;;-144.09;55.76
8890;BME280;4481;43.406;24.454;2023-06-22T09:22:18;74717.44;;;-144.09;55.69
8890;BME280;4481;43.406;24.454;2023-06-22T09:24:45;74709.09;;;-144.09;57.81
8890;BME280;4481;43.406;24.454;2023-06-22T09:27:12;74729.97;;;-144.09;59.01
8890;BME280;4481;43.406;24.454;2023-06-22T09:29:38;74755.03;;;-144.09;58.08
8890;BME280;4481;43.406;24.454;2023-06-22T09:32:05;74761.28;;;-144.09;58.15
8890;BME280;4481;43.406;24.454;2023-06-22T09:34:32;74742.50;;;-144.09;59.37
8890;BME280;4481;43.406;24.454;2023-06-22T09:36:58;74761.28;;;-144.09;60.04
8890;BME280;4481;43.406;24.454;2023-06-22T09:39:26;74757.13;;;-144.09;59.19
8890;BME280;4481;43.406;24.454;2023-06-22T09:41:52;74784.28;;;-144.09;61.11
8890;BME280;4481;43.406;24.454;2023-06-22T09:44:19;74790.53;;;-144.09;59.20
8890;BME280;4481;43.406;24.454;2023-06-22T09:46:45;74786.34;;;-144.09;60.31
8890;BME280;4481;43.406;24.454;2023-06-22T09:49:11;74836.47;;;-144.09;59.99
8890;BME280;4481;43.406;24.454;2023-06-22T09:51:38;74826.03;;;-144.09;57.90
8890;BME280;4481;43.406;24.454;2023-06-22T09:54:04;74800.97;;;-144.09;59.48
8890;BME280;4481;43.406;24.454;2023-06-22T09:56:30;74792.63;;;-144.09;58.20
8890;BME280;4481;43.406;24.454;2023-06-22T09:58:57;74786.34;;;-144.09;56.96
8890;BME280;4481;43.406;24.454;2023-06-22T10:01:24;74713.25;;;-144.09;58.08
8890;BME280;4481;43.406;24.454;2023-06-22T10:03:52;74673.59;;;-144.09;58.19
8890;BME280;4481;43.406;24.454;2023-06-22T10:06:19;74673.59;;;-144.09;55.06
8890;BME280;4481;43.406;24.454;2023-06-22T10:08:46;74677.75;;;-144.09;56.78
8890;BME280;4481;43.406;24.454;2023-06-22T10:11:13;74721.63;;;-144.09;53.80
8890;BME280;4481;43.406;24.454;2023-06-22T10:13:39;74800.97;;;-144.09;55.40
8890;BME280;4481;43.406;24.454;2023-06-22T10:16:06;74805.16;;;-144.09;53.73
8890;BME280;4481;43.406;24.454;2023-06-22T10:18:33;74780.09;;;-144.09;55.40
8890;BME280;4481;43.406;24.454;2023-06-22T10:21:00;74771.75;;;-144.09;57.34
8890;BME280;4481;43.406;24.454;2023-06-22T10:23:26;74778.00;;;-144.09;57.92
8890;BME280;4481;43.406;24.454;2023-06-22T10:25:52;74792.63;;;-144.09;55.92
8890;BME280;4481;43.406;24.454;2023-06-22T10:28:19;74798.88;;;-144.09;58.30
8890;BME280;4481;43.406;24.454;2023-06-22T10:30:45;74811.41;;;-144.09;58.49
8890;BME280;4481;43.406;24.454;2023-06-22T10:33:12;74792.63;;;-144.09;59.94
8890;BME280;4481;43.406;24.454;2023-06-22T10:35:39;74769.66;;;-144.09;59.99
8890;BME280;4481;43.406;24.454;2023-06-22T10:38:05;74775.91;;;-144.09;55.66
8890;BME280;4481;43.406;24.454;2023-06-22T10:40:32;74780.09;;;-144.09;57.80
8890;BME280;4481;43.406;24.454;2023-06-22T10:42:58;74784.28;;;-144.09;58.15
8890;BME280;4481;43.406;24.454;2023-06-22T10:45:24;74778.00;;;-144.09;59.48
8890;BME280;4481;43.406;24.454;2023-06-22T10:47:50;74773.81;;;-144.09;59.47
8890;BME280;4481;43.406;24.454;2023-06-22T10:50:17;74769.66;;;-144.09;59.91
8890;BME280;4481;43.406;24.454;2023-06-22T10:52:44;74771.75;;;-144.09;59.28
8890;BME280;4481;43.406;24.454;2023-06-22T10:55:10;74755.03;;;-144.09;60.75
8890;BME280;4481;43.406;24.454;2023-06-22T10:57:37;74723.69;;;-144.09;59.18
8890;BME280;4481;43.406;24.454;2023-06-22T11:00:05;74709.09;;;-144.09;58.46
8890;BME280;4481;43.406;24.454;2023-06-22T11:02:32;74698.63;;;-144.09;56.68
8890;BME280;4481;43.406;24.454;2023-06-22T11:04:58;74665.22;;;-144.09;56.94
8890;BME280;4481;43.406;24.454;2023-06-22T11:07:26;74646.44;;;-144.09;57.25
8890;BME280;4481;43.406;24.454;2023-06-22T11:09:53;74598.41;;;-144.09;55.51
8890;BME280;4481;43.406;24.454;2023-06-22T11:12:20;74558.72;;;-144.09;55.43
8890;BME280;4481;43.406;24.454;2023-06-22T11:14:46;74521.13;;;-144.09;54.33
8890;BME280;4481;43.406;24.454;2023-06-22T11:17:12;74510.69;;;-144.09;55.52
8890;BME280;4481;43.406;24.454;2023-06-22T11:19:38;74523.22;;;-144.09;53.37
8890;BME280;4481;43.406;24.454;2023-06-22T11:22:05;74500.25;;;-144.09;53.56
8890;BME280;4481;43.406;24.454;2023-06-22T11:24:31;74496.06;;;-144.09;52.59
8890;BME280;4481;43.406;24.454;2023-06-22T11:26:58;74502.34;;;-144.09;51.90
8890;BME280;4481;43.406;24.454;2023-06-22T11:29:25;74521.13;;;-144.09;53.00
8890;BME280;4481;43.406;24.454;2023-06-22T11:31:51;74544.09;;;-144.09;53.95
8890;BME280;4481;43.406;24.454;2023-06-22T11:34:17;74552.47;;;-144.09;52.83
8890;BME280;4481;43.406;24.454;2023-06-22T11:36:44;74491.91;;;-144.09;52.19
8890;BME280;4481;43.406;24.454;2023-06-22T11:39:10;74485.63;;;-144.09;50.97
8890;BME280;4481;43.406;24.454;2023-06-22T11:41:37;74473.09;;;-144.09;51.51
8890;BME280;4481;43.406;24.454;2023-06-22T11:44:04;74510.69;;;-144.09;51.30
8890;BME280;4481;43.406;24.454;2023-06-22T11:46:31;74471.00;;;-144.09;51.85
8890;BME280;4481;43.406;24.454;2023-06-22T11:48:57;74460.56;;;-144.09;52.41
8890;BME280;4481;43.406;24.454;2023-06-22T11:51:24;74483.53;;;-144.09;52.26
8890;BME280;4481;43.406;24.454;2023-06-22T11:53:50;74460.56;;;-144.09;53.46
8890;BME280;4481;43.406;24.454;2023-06-22T11:56:16;74435.50;;;-144.09;51.28
8890;BME280;4481;43.406;24.454;2023-06-22T11:58:42;74471.00;;;-144.09;50.12
8890;BME280;4481;43.406;24.454;2023-06-22T12:01:09;74445.94;;;-144.09;51.51
8890;BME280;4481;43.406;24.454;2023-06-22T12:03:36;74477.28;;;-144.09;49.44
8890;BME280;4481;43.406;24.454;2023-06-22T12:06:02;74519.03;;;-144.09;49.95
8890;BME280;4481;43.406;24.454;2023-06-22T12:08:28;74544.09;;;-144.09;52.20
8890;BME280;4481;43.406;24.454;2023-06-22T12:10:54;74529.47;;;-144.09;49.40
8890;BME280;4481;43.406;24.454;2023-06-22T12:13:20;74510.69;;;-144.09;52.35
8890;BME280;4481;43.406;24.454;2023-06-22T12:15:47;74514.88;;;-144.09;50.53
8890;BME280;4481;43.406;24.454;2023-06-22T12:18:13;74521.13;;;-144.09;53.40
8890;BME280;4481;43.406;24.454;2023-06-22T12:20:40;74475.19;;;-144.09;51.62
8890;BME280;4481;43.406;24.454;2023-06-22T12:23:06;74408.38;;;-144.09;52.51
8890;BME280;4481;43.406;24.454;2023-06-22T12:25:32;74441.78;;;-144.09;53.31
8890;BME280;4481;43.406;24.454;2023-06-22T12:27:58;74439.69;;;-144.09;54.00
8890;BME280;4481;43.406;24.454;2023-06-22T12:30:25;74420.88;;;-144.09;53.36
8890;BME280;4481;43.406;24.454;2023-06-22T12:32:51;74441.78;;;-144.09;54.85
8890;BME280;4481;43.406;24.454;2023-06-22T12:35:18;74475.19;;;-144.09;53.83
8890;BME280;4481;43.406;24.454;2023-06-22T12:37:44;74427.16;;;-144.09;53.45
8890;BME280;4481;43.406;24.454;2023-06-22T12:40:10;74466.84;;;-144.09;54.29
8890;BME280;4481;43.406;24.454;2023-06-22T12:42:37;74508.59;;;-144.09;55.86